Weather reports worldwide

Advertisment
Cairnwell, United Kingdom (3072): temperature & dewpoint: 06.11.2019 17:00:00 - 12.11.2019 17:00:00 (GMT)Cairnwell, United Kingdom (3072): wind speed & gusts: 06.11.2019 17:00:00 - 12.11.2019 17:00:00 (GMT)Cairnwell, United Kingdom (3072): wind direction: 06.11.2019 17:00:00 - 12.11.2019 17:00:00 (GMT)
Date & Time tt [°C] td [°C] ff [km/h] ff [kn] fx [km/h] fx [kn] dd
12.11.2019 17:00:00 - - - - - - -
12.11.2019 16:00:00 -1,4 -1,4 76 41 94 51 N
12.11.2019 15:00:00 -1,0 -1,0 74 40 85 46 NNW
12.11.2019 14:00:00 -0,4 -0,4 68 37 80 43 NNW
12.11.2019 13:00:00 -0,7 -0,7 50 27 80 43 N
12.11.2019 12:00:00 -0,6 -0,6 52 28 83 45 N
12.11.2019 11:00:00 -0,4 -0,4 59 32 93 50 N
12.11.2019 10:00:00 0,2 0,2 67 36 107 58 N
12.11.2019 09:00:00 0,0 0,0 94 51 120 65 N
12.11.2019 08:00:00 -0,1 -0,1 102 55 117 63 N
12.11.2019 07:00:00 -0,2 -0,2 85 46 113 61 N
12.11.2019 06:00:00 -0,4 -0,4 70 38 91 49 N
12.11.2019 05:00:00 -1,5 -1,5 70 38 85 46 N
12.11.2019 04:00:00 -1,4 -1,4 57 31 74 40 N
12.11.2019 03:00:00 -1,5 -1,5 59 32 81 44 NNW
12.11.2019 02:00:00 -1,2 -1,2 39 21 52 28 NNW
12.11.2019 01:00:00 -1,8 -1,8 34 18 54 29 N
12.11.2019 00:00:00 -2,4 -2,4 48 26 52 28 NNE
11.11.2019 23:00:00 -2,3 -2,3 29 16 - - N
11.11.2019 22:00:00 -2,7 -2,7 31 17 - - NNW
11.11.2019 21:00:00 -2,6 -2,6 26 14 - - N
11.11.2019 20:00:00 -2,5 -2,5 34 18 - - N
11.11.2019 19:00:00 -2,3 -2,3 22 12 - - N
11.11.2019 18:00:00 -2,0 -2,0 31 17 - - NW
11.11.2019 17:00:00 -1,8 -1,8 29 16 - - NW
11.11.2019 16:00:00 -2,0 -2,0 37 20 - - NW
11.11.2019 15:00:00 -2,1 -2,1 37 20 50 27 NW
11.11.2019 14:00:00 -2,0 -2,0 46 25 54 29 NW
11.11.2019 13:00:00 -1,9 -1,9 31 17 46 25 N
11.11.2019 12:00:00 -1,8 -1,8 28 15 - - N
11.11.2019 11:00:00 -1,5 -1,5 16 9 - - N
11.11.2019 10:00:00 -1,6 -1,6 11 6 - - SE
11.11.2019 09:00:00 -1,7 -1,7 22 12 - - SSE
11.11.2019 08:00:00 -2,2 -2,2 24 13 - - SSE
11.11.2019 07:00:00 -2,1 -2,1 29 16 - - S
11.11.2019 06:00:00 -2,2 -2,2 31 17 57 31 SSE
11.11.2019 05:00:00 -2,3 -2,3 54 29 85 46 SSE
11.11.2019 04:00:00 -2,1 -2,1 61 33 78 42 SE
11.11.2019 03:00:00 -2,4 -2,4 65 35 93 50 SE
11.11.2019 02:00:00 -2,5 -2,5 67 36 100 54 SE
11.11.2019 01:00:00 -2,6 -2,6 68 37 87 47 SE
11.11.2019 00:00:00 -2,8 -2,8 65 35 85 46 SE
10.11.2019 23:00:00 -2,8 -2,8 59 32 85 46 SSE
10.11.2019 22:00:00 -3,0 -3,0 63 34 81 44 SSE
10.11.2019 21:00:00 -3,1 -3,3 57 31 78 42 SSE
10.11.2019 20:00:00 -2,5 -2,5 55 30 72 39 SSE
10.11.2019 19:00:00 -3,1 -3,1 42 23 63 34 SSE
10.11.2019 18:00:00 -2,4 -3,2 48 26 74 40 SE
10.11.2019 17:00:00 -2,5 -3,9 48 26 67 36 SE
10.11.2019 16:00:00 -2,5 -5,7 29 16 50 27 SE
10.11.2019 15:00:00 -2,2 -5,6 35 19 54 29 ESE
10.11.2019 14:00:00 -2,2 -5,4 24 13 - - ESE
10.11.2019 13:00:00 -2,3 -5,6 29 16 - - E
10.11.2019 12:00:00 -2,7 -4,8 34 18 - - E
10.11.2019 11:00:00 -2,8 -4,9 35 19 - - E
10.11.2019 10:00:00 -2,8 -4,4 18 10 - - ENE
10.11.2019 09:00:00 -3,2 -3,7 13 7 - - NE
10.11.2019 08:00:00 -3,6 -3,7 15 8 - - NE
10.11.2019 07:00:00 -3,7 -3,9 24 13 - - NE
10.11.2019 06:00:00 -3,8 -3,8 26 14 - - NE
10.11.2019 05:00:00 -4,4 -4,4 34 18 - - NNE
10.11.2019 04:00:00 -4,9 -5,3 28 15 57 31 NE
10.11.2019 03:00:00 -4,7 -5,0 34 18 48 26 NE
10.11.2019 02:00:00 -4,6 -4,6 31 17 - - NNE
10.11.2019 01:00:00 -4,3 -4,5 42 23 57 31 NNE
10.11.2019 00:00:00 -4,8 -5,0 41 22 55 30 NNE
09.11.2019 23:00:00 -3,7 -4,4 50 27 55 30 NNE
09.11.2019 22:00:00 -3,7 -3,8 35 19 - - NE
09.11.2019 21:00:00 -3,8 -3,9 24 13 - - NNE
09.11.2019 20:00:00 -3,2 -3,5 18 10 - - NE
09.11.2019 19:00:00 -3,0 -3,1 22 12 - - NE
09.11.2019 18:00:00 -3,0 -3,0 24 13 46 25 NE
09.11.2019 17:00:00 -2,9 -2,9 39 21 - - ENE
09.11.2019 16:00:00 -2,7 -2,9 28 15 - - E
09.11.2019 15:00:00 -2,3 -3,4 21 11 - - E
09.11.2019 14:00:00 -2,2 -3,4 26 14 - - ESE
09.11.2019 13:00:00 -2,0 -3,2 28 15 59 32 ESE
09.11.2019 12:00:00 -2,0 -3,0 31 17 55 30 ESE
09.11.2019 11:00:00 -2,5 -2,9 34 18 50 27 ESE
09.11.2019 10:00:00 -3,0 -3,5 29 16 - - ESE
09.11.2019 09:00:00 -2,9 -3,0 37 20 57 31 SE
09.11.2019 08:00:00 -3,0 -3,1 35 19 55 30 SE
09.11.2019 07:00:00 -3,0 -3,0 37 20 50 27 SSE
09.11.2019 06:00:00 -2,8 -2,8 41 22 59 32 SSE
09.11.2019 05:00:00 -2,5 -2,5 44 24 72 39 SE
09.11.2019 04:00:00 -2,7 -2,7 42 23 67 36 SE
09.11.2019 03:00:00 -2,2 -3,0 42 23 57 31 SE
09.11.2019 02:00:00 -2,3 -3,2 35 19 54 29 SE
09.11.2019 01:00:00 -2,9 -3,7 26 14 - - SSE
09.11.2019 00:00:00 -2,8 -3,6 28 15 - - SSE
08.11.2019 23:00:00 -2,7 -3,5 31 17 - - SE
08.11.2019 22:00:00 -3,4 -4,0 21 11 - - ESE
08.11.2019 21:00:00 -3,3 -3,7 18 10 - - ESE
08.11.2019 20:00:00 -3,3 -3,6 22 12 - - ESE
08.11.2019 19:00:00 -3,2 -3,4 26 14 - - E
08.11.2019 18:00:00 -3,4 -3,7 21 11 - - ENE
08.11.2019 17:00:00 -3,3 -3,4 21 11 - - ENE
08.11.2019 16:00:00 -3,2 -3,6 24 13 46 25 ENE
08.11.2019 15:00:00 -2,5 -2,9 28 15 - - NE
08.11.2019 14:00:00 -2,1 -2,1 13 7 - - NE
08.11.2019 13:00:00 -2,3 -2,3 21 11 46 25 NE
08.11.2019 12:00:00 -2,8 -2,8 35 19 48 26 NE
08.11.2019 11:00:00 -2,8 -2,8 29 16 52 28 NNE
08.11.2019 10:00:00 -3,4 -3,4 34 18 59 32 NNE
08.11.2019 09:00:00 -3,6 -3,6 48 26 61 33 NNE
08.11.2019 08:00:00 -3,8 -3,9 52 28 70 38 NNE
08.11.2019 07:00:00 -3,7 -3,8 61 33 78 42 N
08.11.2019 06:00:00 -3,9 -4,0 59 32 74 40 N
08.11.2019 05:00:00 -3,8 -3,9 55 30 68 37 N
08.11.2019 04:00:00 -4,2 -4,4 31 17 57 31 N
08.11.2019 03:00:00 -3,5 -3,5 46 25 67 36 N
08.11.2019 02:00:00 -3,0 -3,0 50 27 68 37 N
08.11.2019 01:00:00 -2,9 -2,9 57 31 74 40 NNE
08.11.2019 00:00:00 -2,6 -2,6 59 32 70 38 NNE
07.11.2019 23:00:00 -2,6 -2,6 57 31 80 43 NNE
07.11.2019 22:00:00 -2,5 -2,5 55 30 80 43 NE
07.11.2019 21:00:00 -2,6 -2,6 63 34 80 43 NE
07.11.2019 20:00:00 -2,3 -2,3 59 32 87 47 NE
07.11.2019 19:00:00 -2,2 -2,2 70 38 89 48 NNE
07.11.2019 18:00:00 -2,1 -2,1 61 33 83 45 NE
07.11.2019 17:00:00 -2,1 -2,1 57 31 87 47 NE
07.11.2019 16:00:00 -1,8 -1,8 55 30 78 42 NNE
07.11.2019 15:00:00 -1,6 -1,6 52 28 80 43 NE
07.11.2019 14:00:00 -1,1 -1,1 52 28 83 45 NE
07.11.2019 13:00:00 -1,1 -1,1 52 28 83 45 ENE
07.11.2019 12:00:00 -1,1 -1,1 61 33 91 49 ENE
07.11.2019 11:00:00 -1,1 -1,1 72 39 93 50 ENE
07.11.2019 10:00:00 -1,1 -1,1 67 36 89 48 E
07.11.2019 09:00:00 -1,2 -1,2 61 33 96 52 ENE
07.11.2019 08:00:00 -1,3 -1,3 70 38 83 45 E
07.11.2019 07:00:00 -1,4 -1,4 46 25 65 35 E
07.11.2019 06:00:00 -1,4 -1,4 44 24 59 32 E
07.11.2019 05:00:00 -1,4 -1,4 42 23 67 36 E
07.11.2019 04:00:00 -1,5 -1,5 37 20 52 28 E
07.11.2019 03:00:00 -1,6 -1,6 34 18 50 27 E
07.11.2019 02:00:00 -1,5 -1,5 35 19 - - E
07.11.2019 01:00:00 -1,7 -1,7 24 13 46 25 E
07.11.2019 00:00:00 -1,9 -1,9 26 14 70 38 E
06.11.2019 23:00:00 -1,9 -1,9 22 12 - - ENE
06.11.2019 22:00:00 -1,8 -1,8 13 7 - - ENE
06.11.2019 21:00:00 -1,5 -1,5 16 9 - - ESE
06.11.2019 20:00:00 -1,7 -1,7 15 8 - - E
06.11.2019 19:00:00 -1,8 -1,8 15 8 - - SE
06.11.2019 18:00:00 -1,7 -1,7 18 10 - - ESE
06.11.2019 17:00:00 -2,0 -2,0 9 5 - - E

tt = temperature
td = dewpoint
ff = wind speed
fx = gusts
dd = wind direction

Next stations